Terminal Aerodrome Forecast
Issued by NWS Shreveport, LA

Home | Current Version | Previous Version | Text Only | Print | Product List | Glossary On
Versions: 1 2 3 4 5 6 7 8 9 10 11 12 13 14 15 16 17 18 19 20 21
000
FTUS44 KSHV 270539
TAFSHV
TAF
KSHV 270539Z 2706/2806 19005KT P6SM BKN280
     FM271300 24005KT P6SM SCT004 SCT300
     FM271500 24008KT P6SM SCT017 SCT300
     FM271700 23007KT P6SM SCT040 SCT300
     FM280100 21003KT P6SM BKN250=

USA.gov is the U.S. government's official web portal to all federal, state and local government web resources and services.